Charlotte, Michigan
Current Conditions -  °F | °C
As of 5:35 AM on Saturday 22 Nov 2014 (Local Time) from KFPK Reporting Station
Overcast Overcast  
Wind Chill: 24°   Ceiling: 1700
Heat Index: 33°   Visibility: 10mi
Dew Point: 22°   Wind: 13mph
Humidity: 65%   Direction: 190°S
Pressure: 30.08"   Gusts: NA
Location:  42.56°N, 84.83°W
Report Text: KFPK 221035Z AUTO 19011KT 10SM OVC017 01/M05 A3008 RMK AO2 T00061054
Loading
Personal Weather Stations






























Interactive Weather Map New forecast layout! Learn more

10-Day Weather Forecast

Advertisements
Track Severe Weather on mobile